sensor_id;sensor_type;location;lat;lon;timestamp;pressure;altitude;pressure_sealevel;temperature;humidity
53647;BME280;39550;52.230;5.194;2023-04-02T00:00:15;101136.81;;;8.03;89.20
53647;BME280;39550;52.230;5.194;2023-04-02T00:02:55;101148.94;;;8.10;88.69
53647;BME280;39550;52.230;5.194;2023-04-02T00:08:20;101155.75;;;8.10;89.43
53647;BME280;39550;52.230;5.194;2023-04-02T00:10:47;101169.47;;;8.10;89.33
53647;BME280;39550;52.230;5.194;2023-04-02T00:13:27;101166.00;;;8.08;89.07
53647;BME280;39550;52.230;5.194;2023-04-02T00:15:55;101161.72;;;8.07;88.71
53647;BME280;39550;52.230;5.194;2023-04-02T00:18:22;101168.50;;;8.05;89.27
53647;BME280;39550;52.230;5.194;2023-04-02T00:23:37;101175.31;;;8.03;88.85
53647;BME280;39550;52.230;5.194;2023-04-02T00:26:07;101182.09;;;8.01;89.00
53647;BME280;39550;52.230;5.194;2023-04-02T00:28:44;101182.09;;;8.01;88.80
53647;BME280;39550;52.230;5.194;2023-04-02T00:31:09;101188.00;;;7.98;88.70
53647;BME280;39550;52.230;5.194;2023-04-02T00:33:36;101196.69;;;8.04;89.12
53647;BME280;39550;52.230;5.194;2023-04-02T00:36:04;101201.75;;;8.00;88.76
53647;BME280;39550;52.230;5.194;2023-04-02T00:38:32;101194.84;;;7.98;89.18
53647;BME280;39550;52.230;5.194;2023-04-02T00:41:02;101209.31;;;7.96;88.93
53647;BME280;39550;52.230;5.194;2023-04-02T00:43:36;101216.13;;;7.94;88.85
53647;BME280;39550;52.230;5.194;2023-04-02T00:46:16;101220.44;;;7.95;88.83
53647;BME280;39550;52.230;5.194;2023-04-02T00:51:25;101231.53;;;7.94;88.56
53647;BME280;39550;52.230;5.194;2023-04-02T00:53:53;101228.13;;;7.95;88.90
53647;BME280;39550;52.230;5.194;2023-04-02T00:56:31;101233.28;;;7.95;88.63
53647;BME280;39550;52.230;5.194;2023-04-02T00:58:58;101241.78;;;7.94;88.86
53647;BME280;39550;52.230;5.194;2023-04-02T01:01:33;101248.56;;;7.92;88.83
53647;BME280;39550;52.230;5.194;2023-04-02T01:04:02;101248.56;;;7.92;88.75
53647;BME280;39550;52.230;5.194;2023-04-02T01:06:30;101248.53;;;7.90;88.96
53647;BME280;39550;52.230;5.194;2023-04-02T01:09:03;101261.38;;;7.90;89.14
53647;BME280;39550;52.230;5.194;2023-04-02T01:11:46;101262.16;;;7.88;88.45
53647;BME280;39550;52.230;5.194;2023-04-02T01:17:28;101268.91;;;7.84;88.48
53647;BME280;39550;52.230;5.194;2023-04-02T01:22:49;101273.16;;;7.83;88.62
53647;BME280;39550;52.230;5.194;2023-04-02T01:25:24;101287.66;;;7.81;88.20
53647;BME280;39550;52.230;5.194;2023-04-02T01:28:05;101286.81;;;7.81;88.30
53647;BME280;39550;52.230;5.194;2023-04-02T01:30:34;101293.63;;;7.80;88.52
53647;BME280;39550;52.230;5.194;2023-04-02T01:33:01;101291.88;;;7.79;88.47
53647;BME280;39550;52.230;5.194;2023-04-02T01:35:30;101282.47;;;7.78;88.39
53647;BME280;39550;52.230;5.194;2023-04-02T01:40:38;101304.66;;;7.78;87.46
53647;BME280;39550;52.230;5.194;2023-04-02T01:43:24;101315.78;;;7.77;87.84
53647;BME280;39550;52.230;5.194;2023-04-02T01:45:56;101319.19;;;7.77;88.53
53647;BME280;39550;52.230;5.194;2023-04-02T01:48:24;101322.56;;;7.76;87.73
53647;BME280;39550;52.230;5.194;2023-04-02T01:50:55;101329.41;;;7.76;87.35
53647;BME280;39550;52.230;5.194;2023-04-02T01:53:24;101325.88;;;7.72;88.36
53647;BME280;39550;52.230;5.194;2023-04-02T01:55:52;101331.94;;;7.74;87.58
53647;BME280;39550;52.230;5.194;2023-04-02T01:58:21;101347.34;;;7.74;87.53
53647;BME280;39550;52.230;5.194;2023-04-02T02:01:15;101341.31;;;7.74;88.15
53647;BME280;39550;52.230;5.194;2023-04-02T02:03:41;101343.03;;;7.73;87.84
53647;BME280;39550;52.230;5.194;2023-04-02T02:06:11;101348.16;;;7.73;87.55
53647;BME280;39550;52.230;5.194;2023-04-02T02:08:43;101350.72;;;7.73;87.84
53647;BME280;39550;52.230;5.194;2023-04-02T02:11:17;101354.09;;;7.72;87.56
53647;BME280;39550;52.230;5.194;2023-04-02T02:13:50;101362.63;;;7.71;87.81
53647;BME280;39550;52.230;5.194;2023-04-02T02:16:17;101367.72;;;7.70;87.42
53647;BME280;39550;52.230;5.194;2023-04-02T02:18:48;101376.31;;;7.70;87.88
53647;BME280;39550;52.230;5.194;2023-04-02T02:21:44;101379.69;;;7.69;87.87
53647;BME280;39550;52.230;5.194;2023-04-02T02:24:28;101384.72;;;7.66;87.34
53647;BME280;39550;52.230;5.194;2023-04-02T02:30:05;101394.06;;;7.64;86.87
53647;BME280;39550;52.230;5.194;2023-04-02T02:32:44;101391.47;;;7.62;87.42
53647;BME280;39550;52.230;5.194;2023-04-02T02:35:24;101393.97;;;7.61;87.18
53647;BME280;39550;52.230;5.194;2023-04-02T02:37:59;101408.47;;;7.59;86.94
53647;BME280;39550;52.230;5.194;2023-04-02T02:40:33;101414.47;;;7.59;87.01
53647;BME280;39550;52.230;5.194;2023-04-02T02:43:03;101417.84;;;7.58;86.71
53647;BME280;39550;52.230;5.194;2023-04-02T02:45:34;101417.81;;;7.57;86.66
53647;BME280;39550;52.230;5.194;2023-04-02T02:48:02;101428.88;;;7.56;86.93
53647;BME280;39550;52.230;5.194;2023-04-02T02:50:30;101430.53;;;7.54;86.64
53647;BME280;39550;52.230;5.194;2023-04-02T02:52:58;101437.41;;;7.55;86.40
53647;BME280;39550;52.230;5.194;2023-04-02T02:55:30;101437.41;;;7.55;86.38
53647;BME280;39550;52.230;5.194;2023-04-02T02:58:02;101446.78;;;7.54;86.23
53647;BME280;39550;52.230;5.194;2023-04-02T03:00:31;101447.56;;;7.52;86.10
53647;BME280;39550;52.230;5.194;2023-04-02T03:02:57;101440.72;;;7.50;86.05
53647;BME280;39550;52.230;5.194;2023-04-02T03:05:25;101459.47;;;7.49;86.59
53647;BME280;39550;52.230;5.194;2023-04-02T03:07:54;101458.59;;;7.49;86.23
53647;BME280;39550;52.230;5.194;2023-04-02T03:10:28;101461.09;;;7.47;85.65
53647;BME280;39550;52.230;5.194;2023-04-02T03:13:18;101468.00;;;7.48;86.23
53647;BME280;39550;52.230;5.194;2023-04-02T03:18:58;101490.22;;;7.48;86.00
53647;BME280;39550;52.230;5.194;2023-04-02T03:24:21;101495.28;;;7.46;85.77
53647;BME280;39550;52.230;5.194;2023-04-02T03:26:55;101501.25;;;7.45;86.10
53647;BME280;39550;52.230;5.194;2023-04-02T03:29:28;101510.56;;;7.43;85.79
53647;BME280;39550;52.230;5.194;2023-04-02T03:31:56;101510.56;;;7.43;86.18
53647;BME280;39550;52.230;5.194;2023-04-02T03:34:33;101516.53;;;7.42;86.41
53647;BME280;39550;52.230;5.194;2023-04-02T03:39:41;101527.69;;;7.44;86.14
53647;BME280;39550;52.230;5.194;2023-04-02T03:42:21;101534.50;;;7.42;85.64
53647;BME280;39550;52.230;5.194;2023-04-02T03:44:56;101540.44;;;7.41;85.80
53647;BME280;39550;52.230;5.194;2023-04-02T03:47:34;101544.63;;;7.39;86.09
53647;BME280;39550;52.230;5.194;2023-04-02T03:50:36;101559.16;;;7.39;86.01
53647;BME280;39550;52.230;5.194;2023-04-02T03:53:05;101561.66;;;7.37;85.53
53647;BME280;39550;52.230;5.194;2023-04-02T03:55:35;101562.47;;;7.36;86.19
53647;BME280;39550;52.230;5.194;2023-04-02T03:58:19;101571.91;;;7.37;85.48
53647;BME280;39550;52.230;5.194;2023-04-02T04:01:07;101575.28;;;7.36;86.28
53647;BME280;39550;52.230;5.194;2023-04-02T04:03:49;101578.66;;;7.35;85.33
53647;BME280;39550;52.230;5.194;2023-04-02T04:06:27;101593.97;;;7.32;85.81
53647;BME280;39550;52.230;5.194;2023-04-02T04:09:08;101591.34;;;7.30;86.41
53647;BME280;39550;52.230;5.194;2023-04-02T04:11:43;101588.75;;;7.29;85.67
53647;BME280;39550;52.230;5.194;2023-04-02T04:14:17;101602.38;;;7.28;85.54
53647;BME280;39550;52.230;5.194;2023-04-02T04:19:32;101604.13;;;7.29;85.67
53647;BME280;39550;52.230;5.194;2023-04-02T04:22:28;101621.13;;;7.27;85.60
53647;BME280;39550;52.230;5.194;2023-04-02T04:24:55;101619.41;;;7.26;85.63
53647;BME280;39550;52.230;5.194;2023-04-02T04:27:37;101625.41;;;7.26;85.25
53647;BME280;39550;52.230;5.194;2023-04-02T04:32:35;101639.91;;;7.26;85.29
53647;BME280;39550;52.230;5.194;2023-04-02T04:37:44;101650.16;;;7.26;85.70
53647;BME280;39550;52.230;5.194;2023-04-02T04:40:25;101663.69;;;7.22;85.28
53647;BME280;39550;52.230;5.194;2023-04-02T04:42:54;101671.34;;;7.20;85.22
53647;BME280;39550;52.230;5.194;2023-04-02T04:48:03;101676.41;;;7.19;85.39
53647;BME280;39550;52.230;5.194;2023-04-02T04:51:01;101685.72;;;7.16;84.80
53647;BME280;39550;52.230;5.194;2023-04-02T04:53:27;101695.97;;;7.16;85.61
53647;BME280;39550;52.230;5.194;2023-04-02T04:55:59;101695.97;;;7.16;85.32
53647;BME280;39550;52.230;5.194;2023-04-02T04:58:57;101702.75;;;7.14;84.67
53647;BME280;39550;52.230;5.194;2023-04-02T05:01:42;101708.75;;;7.15;85.50
53647;BME280;39550;52.230;5.194;2023-04-02T05:06:48;101735.13;;;7.12;84.83
53647;BME280;39550;52.230;5.194;2023-04-02T05:11:58;101738.41;;;7.08;84.07
53647;BME280;39550;52.230;5.194;2023-04-02T05:14:34;101740.97;;;7.08;84.87
53647;BME280;39550;52.230;5.194;2023-04-02T05:17:09;101750.31;;;7.06;83.89
53647;BME280;39550;52.230;5.194;2023-04-02T05:19:53;101751.13;;;7.05;84.59
53647;BME280;39550;52.230;5.194;2023-04-02T05:22:43;101751.91;;;7.04;84.56
53647;BME280;39550;52.230;5.194;2023-04-02T05:25:30;101761.31;;;7.04;84.90
53647;BME280;39550;52.230;5.194;2023-04-02T05:28:14;101769.88;;;7.04;84.48
53647;BME280;39550;52.230;5.194;2023-04-02T05:31:00;101776.59;;;7.01;84.29
53647;BME280;39550;52.230;5.194;2023-04-02T05:33:28;101774.78;;;6.98;84.90
53647;BME280;39550;52.230;5.194;2023-04-02T05:36:10;101778.25;;;7.00;84.41
53647;BME280;39550;52.230;5.194;2023-04-02T05:38:39;101790.25;;;7.01;84.04
53647;BME280;39550;52.230;5.194;2023-04-02T05:43:37;101801.19;;;6.97;84.13
53647;BME280;39550;52.230;5.194;2023-04-02T05:46:16;101805.38;;;6.95;83.60
53647;BME280;39550;52.230;5.194;2023-04-02T05:48:42;101816.31;;;6.91;83.69
53647;BME280;39550;52.230;5.194;2023-04-02T05:51:16;101821.44;;;6.91;82.90
53647;BME280;39550;52.230;5.194;2023-04-02T05:53:51;101833.47;;;6.92;82.77
53647;BME280;39550;52.230;5.194;2023-04-02T05:56:22;101841.09;;;6.90;82.02
53647;BME280;39550;52.230;5.194;2023-04-02T05:58:53;101843.72;;;6.92;82.49
53647;BME280;39550;52.230;5.194;2023-04-02T06:01:45;101847.06;;;6.91;83.13
53647;BME280;39550;52.230;5.194;2023-04-02T06:07:17;101859.88;;;6.91;82.96
53647;BME280;39550;52.230;5.194;2023-04-02T06:09:48;101867.47;;;6.88;82.52
53647;BME280;39550;52.230;5.194;2023-04-02T06:12:25;101881.22;;;6.90;82.31
53647;BME280;39550;52.230;5.194;2023-04-02T06:14:53;101885.44;;;6.89;82.57
53647;BME280;39550;52.230;5.194;2023-04-02T06:17:20;101890.53;;;6.88;82.39
53647;BME280;39550;52.230;5.194;2023-04-02T06:19:45;101897.34;;;6.87;82.70
53647;BME280;39550;52.230;5.194;2023-04-02T06:22:22;101898.09;;;6.85;82.34
53647;BME280;39550;52.230;5.194;2023-04-02T06:24:57;101910.97;;;6.86;82.26
53647;BME280;39550;52.230;5.194;2023-04-02T06:27:25;101915.22;;;6.86;82.92
53647;BME280;39550;52.230;5.194;2023-04-02T06:29:56;101920.34;;;6.86;82.21
53647;BME280;39550;52.230;5.194;2023-04-02T06:32:23;101919.38;;;6.84;81.56
53647;BME280;39550;52.230;5.194;2023-04-02T06:34:51;101923.59;;;6.81;81.83
53647;BME280;39550;52.230;5.194;2023-04-02T06:39:42;101935.44;;;6.79;81.88
53647;BME280;39550;52.230;5.194;2023-04-02T06:42:14;101939.72;;;6.79;82.30
53647;BME280;39550;52.230;5.194;2023-04-02T06:44:41;101945.56;;;6.76;82.25
53647;BME280;39550;52.230;5.194;2023-04-02T06:50:11;101947.06;;;6.71;82.00
53647;BME280;39550;52.230;5.194;2023-04-02T06:52:43;101959.19;;;6.75;81.89
53647;BME280;39550;52.230;5.194;2023-04-02T06:58:01;101978.88;;;6.76;81.62
53647;BME280;39550;52.230;5.194;2023-04-02T07:00:37;101982.19;;;6.74;81.67
53647;BME280;39550;52.230;5.194;2023-04-02T07:03:26;101990.78;;;6.74;81.94
53647;BME280;39550;52.230;5.194;2023-04-02T07:05:53;101986.56;;;6.76;81.27
53647;BME280;39550;52.230;5.194;2023-04-02T07:08:19;101995.06;;;6.75;81.81
53647;BME280;39550;52.230;5.194;2023-04-02T07:10:45;102003.56;;;6.74;81.14
53647;BME280;39550;52.230;5.194;2023-04-02T07:13:18;102001.81;;;6.73;82.01
53647;BME280;39550;52.230;5.194;2023-04-02T07:15:46;102012.06;;;6.73;81.42
53647;BME280;39550;52.230;5.194;2023-04-02T07:18:23;102012.94;;;6.74;81.97
53647;BME280;39550;52.230;5.194;2023-04-02T07:20:48;102018.78;;;6.71;81.77
53647;BME280;39550;52.230;5.194;2023-04-02T07:23:14;102034.16;;;6.71;80.90
53647;BME280;39550;52.230;5.194;2023-04-02T07:25:40;102030.00;;;6.73;81.28
53647;BME280;39550;52.230;5.194;2023-04-02T07:28:05;102036.66;;;6.70;81.75
53647;BME280;39550;52.230;5.194;2023-04-02T07:30:31;102046.91;;;6.70;81.15
53647;BME280;39550;52.230;5.194;2023-04-02T07:32:56;102051.16;;;6.69;80.88
53647;BME280;39550;52.230;5.194;2023-04-02T07:35:21;102054.41;;;6.65;81.16
53647;BME280;39550;52.230;5.194;2023-04-02T07:37:47;102057.91;;;6.67;80.93
53647;BME280;39550;52.230;5.194;2023-04-02T07:40:18;102067.34;;;6.68;81.49
53647;BME280;39550;52.230;5.194;2023-04-02T07:42:45;102071.53;;;6.66;80.53
53647;BME280;39550;52.230;5.194;2023-04-02T07:45:11;102071.38;;;6.63;80.13
53647;BME280;39550;52.230;5.194;2023-04-02T07:47:36;102071.38;;;6.63;80.03
53647;BME280;39550;52.230;5.194;2023-04-02T07:50:02;102076.50;;;6.63;80.67
53647;BME280;39550;52.230;5.194;2023-04-02T07:52:27;102079.91;;;6.62;80.35
53647;BME280;39550;52.230;5.194;2023-04-02T07:54:53;102081.50;;;6.60;80.42
53647;BME280;39550;52.230;5.194;2023-04-02T07:57:18;102089.25;;;6.61;79.73
53647;BME280;39550;52.230;5.194;2023-04-02T07:59:43;102089.19;;;6.60;80.54
53647;BME280;39550;52.230;5.194;2023-04-02T08:02:19;102098.50;;;6.58;79.52
53647;BME280;39550;52.230;5.194;2023-04-02T08:04:46;102105.34;;;6.59;80.21
53647;BME280;39550;52.230;5.194;2023-04-02T08:07:11;102103.75;;;6.61;80.26
53647;BME280;39550;52.230;5.194;2023-04-02T08:09:37;102094.22;;;6.58;79.55
53647;BME280;39550;52.230;5.194;2023-04-02T08:12:02;102105.50;;;6.62;79.83
53647;BME280;39550;52.230;5.194;2023-04-02T08:14:28;102109.00;;;6.64;80.47
53647;BME280;39550;52.230;5.194;2023-04-02T08:16:54;102115.75;;;6.62;79.96
53647;BME280;39550;52.230;5.194;2023-04-02T08:19:20;102121.72;;;6.62;79.81
53647;BME280;39550;52.230;5.194;2023-04-02T08:21:47;102120.03;;;6.63;80.00
53647;BME280;39550;52.230;5.194;2023-04-02T08:24:15;102132.84;;;6.63;79.75
53647;BME280;39550;52.230;5.194;2023-04-02T08:26:44;102134.59;;;6.64;80.07
53647;BME280;39550;52.230;5.194;2023-04-02T08:29:09;102138.13;;;6.66;79.98
53647;BME280;39550;52.230;5.194;2023-04-02T08:31:35;102140.59;;;6.64;79.43
53647;BME280;39550;52.230;5.194;2023-04-02T08:34:00;102144.84;;;6.64;79.68
53647;BME280;39550;52.230;5.194;2023-04-02T08:36:29;102152.41;;;6.61;79.38
53647;BME280;39550;52.230;5.194;2023-04-02T08:38:56;102155.09;;;6.64;79.64
53647;BME280;39550;52.230;5.194;2023-04-02T08:41:24;102153.50;;;6.66;79.88
53647;BME280;39550;52.230;5.194;2023-04-02T08:46:29;102164.53;;;6.65;78.80
53647;BME280;39550;52.230;5.194;2023-04-02T08:49:01;102156.88;;;6.65;79.23
53647;BME280;39550;52.230;5.194;2023-04-02T08:51:32;102160.34;;;6.67;79.88
53647;BME280;39550;52.230;5.194;2023-04-02T08:54:02;102173.16;;;6.67;79.13
53647;BME280;39550;52.230;5.194;2023-04-02T08:56:40;102176.63;;;6.68;79.56
53647;BME280;39550;52.230;5.194;2023-04-02T08:59:25;102184.91;;;6.62;79.54
53647;BME280;39550;52.230;5.194;2023-04-02T09:04:38;102187.47;;;6.62;79.02
53647;BME280;39550;52.230;5.194;2023-04-02T09:07:13;102192.84;;;6.68;79.32
53647;BME280;39550;52.230;5.194;2023-04-02T09:09:41;102193.94;;;6.73;79.00
53647;BME280;39550;52.230;5.194;2023-04-02T09:12:16;102199.19;;;6.76;79.64
53647;BME280;39550;52.230;5.194;2023-04-02T09:17:34;102203.09;;;6.68;78.84
53647;BME280;39550;52.230;5.194;2023-04-02T09:20:21;102205.06;;;6.74;79.05
53647;BME280;39550;52.230;5.194;2023-04-02T09:22:49;102207.03;;;6.79;78.46
53647;BME280;39550;52.230;5.194;2023-04-02T09:25:21;102210.69;;;6.85;78.69
53647;BME280;39550;52.230;5.194;2023-04-02T09:27:49;102214.94;;;6.84;78.03
53647;BME280;39550;52.230;5.194;2023-04-02T09:30:23;102218.31;;;6.83;78.29
53647;BME280;39550;52.230;5.194;2023-04-02T09:32:55;102219.28;;;6.87;78.82
53647;BME280;39550;52.230;5.194;2023-04-02T09:35:30;102224.22;;;6.82;78.57
53647;BME280;39550;52.230;5.194;2023-04-02T09:51:06;102255.59;;;6.96;79.34
53647;BME280;39550;52.230;5.194;2023-04-02T09:53:34;102247.78;;;6.93;79.36
53647;BME280;39550;52.230;5.194;2023-04-02T09:56:15;102253.72;;;6.92;79.11
53647;BME280;39550;52.230;5.194;2023-04-02T09:58:42;102252.78;;;6.90;78.68
53647;BME280;39550;52.230;5.194;2023-04-02T10:01:43;102263.94;;;6.92;79.25
53647;BME280;39550;52.230;5.194;2023-04-02T10:07:00;102267.06;;;6.85;79.22
53647;BME280;39550;52.230;5.194;2023-04-02T10:09:31;102272.31;;;6.88;79.05
53647;BME280;39550;52.230;5.194;2023-04-02T10:11:58;102277.28;;;6.85;79.37
53647;BME280;39550;52.230;5.194;2023-04-02T10:14:40;102267.06;;;6.85;79.39
53647;BME280;39550;52.230;5.194;2023-04-02T10:17:30;102276.63;;;6.89;78.70
53647;BME280;39550;52.230;5.194;2023-04-02T10:20:02;102292.81;;;6.88;78.63
53647;BME280;39550;52.230;5.194;2023-04-02T10:22:30;102286.88;;;6.89;78.84
53647;BME280;39550;52.230;5.194;2023-04-02T10:24:57;102302.41;;;6.92;79.06
53647;BME280;39550;52.230;5.194;2023-04-02T10:27:42;102298.00;;;6.89;78.79
53647;BME280;39550;52.230;5.194;2023-04-02T10:30:17;102300.50;;;6.88;78.51
53647;BME280;39550;52.230;5.194;2023-04-02T10:33:02;102301.28;;;6.87;78.84
53647;BME280;39550;52.230;5.194;2023-04-02T10:46:37;102304.22;;;6.94;78.81
53647;BME280;39550;52.230;5.194;2023-04-02T11:03:01;102310.38;;;6.98;78.28
53647;BME280;39550;52.230;5.194;2023-04-02T11:05:40;102318.13;;;6.99;77.88
53647;BME280;39550;52.230;5.194;2023-04-02T11:08:45;102312.28;;;7.02;77.85
53647;BME280;39550;52.230;5.194;2023-04-02T11:11:21;102319.97;;;7.02;78.07
53647;BME280;39550;52.230;5.194;2023-04-02T11:14:00;102320.84;;;7.03;77.72
53647;BME280;39550;52.230;5.194;2023-04-02T11:16:27;102332.78;;;7.02;77.51
53647;BME280;39550;52.230;5.194;2023-04-02T11:19:21;102330.34;;;7.05;77.61
53647;BME280;39550;52.230;5.194;2023-04-02T11:21:59;102327.78;;;7.05;78.34
53647;BME280;39550;52.230;5.194;2023-04-02T11:39:59;102347.03;;;7.15;76.40
53647;BME280;39550;52.230;5.194;2023-04-02T11:44:51;102352.53;;;7.23;75.90
53647;BME280;39550;52.230;5.194;2023-04-02T11:47:19;102371.56;;;7.28;76.33
53647;BME280;39550;52.230;5.194;2023-04-02T11:49:56;102369.06;;;7.29;75.87
53647;BME280;39550;52.230;5.194;2023-04-02T11:52:27;102370.81;;;7.30;76.25
53647;BME280;39550;52.230;5.194;2023-04-02T11:54:57;102371.84;;;7.34;76.34
53647;BME280;39550;52.230;5.194;2023-04-02T11:57:33;102378.88;;;7.38;76.31
53647;BME280;39550;52.230;5.194;2023-04-02T12:00:22;102373.00;;;7.41;75.49
53647;BME280;39550;52.230;5.194;2023-04-02T12:03:03;102384.41;;;7.47;75.39
53647;BME280;39550;52.230;5.194;2023-04-02T12:11:35;102376.34;;;7.58;70.55
53647;BME280;39550;52.230;5.194;2023-04-02T12:19:39;102394.16;;;7.74;70.60
53647;BME280;39550;52.230;5.194;2023-04-02T12:22:17;102383.28;;;7.80;70.10
53647;BME280;39550;52.230;5.194;2023-04-02T12:24:46;102383.44;;;7.83;70.91
53647;BME280;39550;52.230;5.194;2023-04-02T12:27:20;102378.75;;;7.94;70.39
53647;BME280;39550;52.230;5.194;2023-04-02T12:29:52;102381.47;;;7.97;71.11
53647;BME280;39550;52.230;5.194;2023-04-02T12:32:29;102396.06;;;7.98;71.22
53647;BME280;39550;52.230;5.194;2023-04-02T12:34:56;102394.69;;;8.06;71.67
53647;BME280;39550;52.230;5.194;2023-04-02T12:37:27;102402.59;;;8.11;70.36
53647;BME280;39550;52.230;5.194;2023-04-02T12:39:58;102401.03;;;8.14;70.63
53647;BME280;39550;52.230;5.194;2023-04-02T12:42:26;102397.31;;;8.27;70.76
53647;BME280;39550;52.230;5.194;2023-04-02T12:44:52;102390.19;;;8.41;69.29
53647;BME280;39550;52.230;5.194;2023-04-02T12:47:17;102391.94;;;8.42;69.97
53647;BME280;39550;52.230;5.194;2023-04-02T12:49:43;102390.72;;;8.54;68.88
53647;BME280;39550;52.230;5.194;2023-04-02T12:52:12;102389.34;;;8.62;68.39
53647;BME280;39550;52.230;5.194;2023-04-02T12:54:59;102402.13;;;8.60;68.54
53647;BME280;39550;52.230;5.194;2023-04-02T12:59:51;102398.38;;;8.73;68.72
53647;BME280;39550;52.230;5.194;2023-04-02T13:02:22;102402.69;;;8.74;69.42
53647;BME280;39550;52.230;5.194;2023-04-02T13:04:59;102407.25;;;8.81;68.26
53647;BME280;39550;52.230;5.194;2023-04-02T13:07:30;102411.97;;;8.92;67.63
53647;BME280;39550;52.230;5.194;2023-04-02T13:10:22;102404.22;;;9.13;67.62
53647;BME280;39550;52.230;5.194;2023-04-02T13:12:54;102398.84;;;9.29;66.56
53647;BME280;39550;52.230;5.194;2023-04-02T13:15:22;102410.94;;;9.54;66.59
53647;BME280;39550;52.230;5.194;2023-04-02T13:20:41;102410.53;;;9.44;67.27
53647;BME280;39550;52.230;5.194;2023-04-02T13:26:21;102408.59;;;9.61;64.39
53647;BME280;39550;52.230;5.194;2023-04-02T13:29:24;102409.94;;;9.74;64.21
53647;BME280;39550;52.230;5.194;2023-04-02T13:31:51;102412.88;;;9.60;65.12
53647;BME280;39550;52.230;5.194;2023-04-02T13:34:17;102405.09;;;9.59;64.17
53647;BME280;39550;52.230;5.194;2023-04-02T13:36:43;102418.75;;;9.80;65.66
53647;BME280;39550;52.230;5.194;2023-04-02T13:39:09;102411.69;;;9.99;65.17
53647;BME280;39550;52.230;5.194;2023-04-02T13:41:46;102412.41;;;9.95;64.80
53647;BME280;39550;52.230;5.194;2023-04-02T13:44:19;102407.94;;;10.39;64.76
53647;BME280;39550;52.230;5.194;2023-04-02T13:46:45;102410.75;;;9.97;65.28
53647;BME280;39550;52.230;5.194;2023-04-02T13:49:10;102413.06;;;9.89;65.79
53647;BME280;39550;52.230;5.194;2023-04-02T13:51:39;102421.44;;;9.83;65.79
53647;BME280;39550;52.230;5.194;2023-04-02T13:54:08;102427.41;;;9.82;65.03
53647;BME280;39550;52.230;5.194;2023-04-02T13:56:36;102430.84;;;9.83;66.39
53647;BME280;39550;52.230;5.194;2023-04-02T13:59:01;102425.53;;;9.78;65.50
53647;BME280;39550;52.230;5.194;2023-04-02T14:01:27;102431.94;;;9.89;63.80
53647;BME280;39550;52.230;5.194;2023-04-02T14:03:53;102443.13;;;10.14;64.89
53647;BME280;39550;52.230;5.194;2023-04-02T14:17:27;102436.56;;;10.22;64.98
53647;BME280;39550;52.230;5.194;2023-04-02T14:20:19;102439.28;;;10.27;63.59
53647;BME280;39550;52.230;5.194;2023-04-02T14:23:17;102444.13;;;10.42;64.09
53647;BME280;39550;52.230;5.194;2023-04-02T14:26:31;102437.59;;;10.78;63.98
53647;BME280;39550;52.230;5.194;2023-04-02T14:37:23;102446.47;;;11.13;63.12
53647;BME280;39550;52.230;5.194;2023-04-02T14:48:18;102457.72;;;11.44;61.22
53647;BME280;39550;52.230;5.194;2023-04-02T14:50:47;102462.59;;;11.35;61.78
53647;BME280;39550;52.230;5.194;2023-04-02T14:53:19;102464.16;;;11.58;61.42
53647;BME280;39550;52.230;5.194;2023-04-02T14:55:48;102471.66;;;11.49;60.17
53647;BME280;39550;52.230;5.194;2023-04-02T14:58:25;102477.25;;;11.36;60.92
53647;BME280;39550;52.230;5.194;2023-04-02T15:00:57;102472.59;;;11.53;59.21
53647;BME280;39550;52.230;5.194;2023-04-02T15:03:34;102466.31;;;11.73;60.56
53647;BME280;39550;52.230;5.194;2023-04-02T15:06:09;102470.38;;;12.24;61.32
53647;BME280;39550;52.230;5.194;2023-04-02T15:08:38;102475.69;;;11.99;59.96
53647;BME280;39550;52.230;5.194;2023-04-02T15:11:11;102483.81;;;11.53;59.72
53647;BME280;39550;52.230;5.194;2023-04-02T15:13:48;102481.47;;;11.34;60.43
53647;BME280;39550;52.230;5.194;2023-04-02T15:16:19;102489.97;;;10.51;63.02
53647;BME280;39550;52.230;5.194;2023-04-02T15:18:45;102488.47;;;10.83;62.12
53647;BME280;39550;52.230;5.194;2023-04-02T15:21:48;102484.31;;;10.87;62.24
53647;BME280;39550;52.230;5.194;2023-04-02T15:24:23;102487.53;;;10.07;63.63
53647;BME280;39550;52.230;5.194;2023-04-02T15:27:18;102489.38;;;9.42;66.34
53647;BME280;39550;52.230;5.194;2023-04-02T15:40:37;102493.78;;;9.02;68.98
53647;BME280;39550;52.230;5.194;2023-04-02T15:54:16;102487.25;;;8.68;66.76
53647;BME280;39550;52.230;5.194;2023-04-02T16:10:11;102520.81;;;8.71;66.45
53647;BME280;39550;52.230;5.194;2023-04-02T16:12:39;102518.06;;;8.68;68.10
53647;BME280;39550;52.230;5.194;2023-04-02T16:15:25;102526.47;;;8.64;68.72
53647;BME280;39550;52.230;5.194;2023-04-02T16:17:57;102525.47;;;8.60;68.57
53647;BME280;39550;52.230;5.194;2023-04-02T16:20:30;102535.13;;;8.66;68.17
53647;BME280;39550;52.230;5.194;2023-04-02T16:23:04;102535.13;;;8.66;66.83
53647;BME280;39550;52.230;5.194;2023-04-02T16:25:40;102530.81;;;8.65;68.55
53647;BME280;39550;52.230;5.194;2023-04-02T16:28:23;102541.88;;;8.64;67.93
53647;BME280;39550;52.230;5.194;2023-04-02T16:33:44;102548.78;;;8.65;67.83
53647;BME280;39550;52.230;5.194;2023-04-02T16:36:19;102553.94;;;8.65;68.82
53647;BME280;39550;52.230;5.194;2023-04-02T16:38:54;102556.38;;;8.62;67.39
53647;BME280;39550;52.230;5.194;2023-04-02T16:41:50;102563.34;;;8.64;68.05
53647;BME280;39550;52.230;5.194;2023-04-02T16:49:50;102570.09;;;8.62;66.38
53647;BME280;39550;52.230;5.194;2023-04-02T16:55:35;102562.41;;;9.24;65.81
53647;BME280;39550;52.230;5.194;2023-04-02T16:58:39;102571.41;;;10.00;64.61
53647;BME280;39550;52.230;5.194;2023-04-02T17:01:34;102578.81;;;10.36;64.74
53647;BME280;39550;52.230;5.194;2023-04-02T17:10:20;102594.88;;;10.31;63.59
53647;BME280;39550;52.230;5.194;2023-04-02T17:13:17;102604.03;;;10.00;64.61
53647;BME280;39550;52.230;5.194;2023-04-02T17:15:41;102607.31;;;9.75;65.35
53647;BME280;39550;52.230;5.194;2023-04-02T17:18:17;102607.47;;;9.57;65.87